Aérodrome :
LOGIN :

S'inscrire | Disclaimer

   EN    FR    IT 

 










Légende :    VFR   VFR Marginal   IFR   IFR Intensif   IFR Très Intensif
Visi : 
Plafond : 
>= 8 km
>= 3000ft
5 à 8 km
1000 à 3000 ft
1500m à 5 km
500 à 1000 ft
800 à 1500m
200 à 500 ft
< 800m
< 200 ft
Symboles :   Orages  Brouillard  Fortes neiges  Fortes précipitations  Vent > 20 kt
SIGMETs :   Divers  Orages  Givrage  Turbulence  Onde Orograph.  Cendres Volcan.






- Altitude de l'aérodrome : 72 ft
- Code IATA : UDE


EHVK - Volkel Airbase

DERNIER METAR :
  • 242255Z AUTO 18011KT 160V220 9999 DZ FEW015CB SCT063 BKN074 14/11 Q0995 BLU

METARs EXPIRÉS :
  • 242225Z AUTO 18013KT 150V230 9999 -RA FEW015CB BKN080 BKN096 14/11 Q0995 RERA REDZ BLU
  • 242216Z AUTO 18012KT 130V230 9999 -RADZ FEW015CB SCT084 OVC110 15/11 Q0995 BLU
  • 242155Z AUTO 16008KT 130V190 9999 FEW070 OVC100 14/11 Q0995 BLU
  • 242125Z AUTO 15007KT 110V190 9999 SCT038 BKN042 BKN047 14/11 Q0996 BLU
  • 242055Z AUTO 14009KT 120V190 9999 FEW049 BKN053 OVC059 14/10 Q0996 BLU
  • 242040Z AUTO 15009KT 110V170 9999 FEW046/// SCT054/// BKN059/// 14/10 Q0996 BLU
  • 242025Z AUTO 14008KT 100V180 9999 FEW018CB BKN060 OVC066 14/10 Q0997 BLU
  • 241955Z AUTO 15004KT 110V180 9999 -RA FEW015CB SCT067 BKN074 14/10 Q0997 BLU

TAF TAF EHVK
Valide du 24 à 21h jusqu'au 25 à 09h UTC


242033Z 2421/2509 15009KT 9999 SCT045
TEMPO 2418/2501 FEW015 SCT025CB BKN030
BECMG 2423/2501 21012G22KT



MET'MAP, la Météo Aéronautique d'un coup d'oeil ! - Copyright ORBIFLY Décembre 2007 - Disclaimer

ORBIFLY MET'MAP TEAM :

Programmation & Développement : Alexandra Zaïnal
Sur une idée originale de : Baudouin d'Aumeries
Assistance à la programmation : Marc-Olivier Méhu
Soutien technique & logistique : Manuel Goepfert

Contact : metmap@orbifly.com




SOURCES & CREDITS :

   NOAA